createdAt,value
2023-01-22T00:00:00.431Z,20.10
2023-01-22T00:00:11.477Z,19.20
2023-01-22T00:00:22.445Z,19.60
2023-01-22T00:00:33.215Z,18.50
2023-01-22T00:00:44.282Z,18.10
2023-01-22T00:00:55.244Z,18.50
2023-01-22T00:01:06.012Z,19.00
2023-01-22T00:01:17.080Z,18.20
2023-01-22T00:01:28.036Z,18.00
2023-01-22T00:01:38.812Z,18.60
2023-01-22T00:01:49.874Z,19.00
2023-01-22T00:02:00.842Z,20.10
2023-01-22T00:02:11.630Z,19.40
2023-01-22T00:02:22.695Z,19.10
2023-01-22T00:02:33.708Z,19.30
2023-01-22T00:02:44.507Z,18.20
2023-01-22T00:02:55.504Z,18.20
2023-01-22T00:03:06.479Z,17.80
2023-01-22T00:03:17.283Z,18.30
2023-01-22T00:03:28.299Z,18.50
2023-01-22T00:03:39.308Z,19.60
2023-01-22T00:03:50.179Z,19.90
2023-01-22T00:04:00.741Z,19.90
2023-01-22T00:04:11.700Z,18.20
2023-01-22T00:04:22.454Z,18.30
2023-01-22T00:04:33.507Z,17.40
2023-01-22T00:04:44.475Z,19.00
2023-01-22T00:04:55.318Z,19.00
2023-01-22T00:05:06.332Z,19.70
2023-01-22T00:05:17.298Z,18.00
2023-01-22T00:05:28.096Z,18.20
2023-01-22T00:05:39.141Z,17.40
2023-01-22T00:05:50.095Z,19.20
2023-01-22T00:06:00.868Z,19.50
2023-01-22T00:06:11.930Z,19.30
2023-01-22T00:06:22.885Z,18.20
2023-01-22T00:06:33.670Z,19.30
2023-01-22T00:06:44.734Z,19.20
2023-01-22T00:06:55.722Z,18.80
2023-01-22T00:07:06.480Z,19.00
2023-01-22T00:07:17.530Z,19.30
2023-01-22T00:07:28.506Z,19.20
2023-01-22T00:07:39.272Z,19.00
2023-01-22T00:07:50.313Z,18.60
2023-01-22T00:08:01.375Z,18.10
2023-01-22T00:08:12.082Z,18.40
2023-01-22T00:08:23.125Z,18.10
2023-01-22T00:08:34.096Z,18.70
2023-01-22T00:08:44.880Z,18.80
2023-01-22T00:08:55.911Z,18.20
2023-01-22T00:09:06.912Z,18.60
2023-01-22T00:09:17.714Z,19.40
2023-01-22T00:09:28.739Z,19.60
2023-01-22T00:09:39.688Z,19.10
2023-01-22T00:09:50.459Z,18.10
2023-01-22T00:10:01.600Z,18.60
2023-01-22T00:10:12.536Z,18.50
2023-01-22T00:10:23.423Z,19.10
2023-01-22T00:10:33.882Z,18.80
2023-01-22T00:10:44.879Z,18.10
2023-01-22T00:10:55.653Z,17.90
2023-01-22T00:11:06.683Z,19.40
2023-01-22T00:11:17.652Z,19.80
2023-01-22T00:11:28.418Z,18.40
2023-01-22T00:11:39.506Z,19.00
2023-01-22T00:11:50.470Z,18.60
2023-01-22T00:12:01.249Z,18.60
2023-01-22T00:12:12.353Z,18.10
2023-01-22T00:12:23.319Z,19.00
2023-01-22T00:12:34.070Z,19.60
2023-01-22T00:12:45.126Z,19.40
2023-01-22T00:12:56.108Z,19.20
2023-01-22T00:13:06.889Z,19.10
2023-01-22T00:13:17.918Z,18.60
2023-01-22T00:13:28.906Z,18.10
2023-01-22T00:13:39.691Z,17.80
2023-01-22T00:13:50.807Z,18.20
2023-01-22T00:14:01.842Z,19.30
2023-01-22T00:14:12.618Z,19.70
2023-01-22T00:14:23.691Z,19.40
2023-01-22T00:14:34.775Z,19.30
2023-01-22T00:14:45.546Z,19.10
2023-01-22T00:14:56.570Z,17.90
2023-01-22T00:15:07.547Z,17.90
2023-01-22T00:15:18.349Z,17.80
2023-01-22T00:15:29.411Z,18.70
2023-01-22T00:15:40.515Z,19.70
2023-01-22T00:15:51.284Z,19.20
2023-01-22T00:16:02.397Z,18.70
2023-01-22T00:16:13.447Z,18.90
2023-01-22T00:16:24.210Z,19.80
2023-01-22T00:16:35.293Z,20.10
2023-01-22T00:16:46.239Z,20.10
2023-01-22T00:16:57.029Z,19.70
2023-01-22T00:17:08.076Z,19.30
2023-01-22T00:17:19.059Z,19.70
2023-01-22T00:17:29.830Z,19.40
2023-01-22T00:17:40.873Z,18.60
2023-01-22T00:17:51.849Z,18.10
2023-01-22T00:18:02.612Z,19.00
2023-01-22T00:18:13.670Z,19.50
2023-01-22T00:18:24.683Z,19.80
2023-01-22T00:18:35.448Z,18.60
2023-01-22T00:18:46.509Z,18.60
2023-01-22T00:18:57.509Z,18.20
2023-01-22T00:19:08.253Z,18.60
2023-01-22T00:19:19.311Z,18.90
2023-01-22T00:19:30.275Z,19.10
2023-01-22T00:19:41.118Z,18.50
2023-01-22T00:19:52.135Z,18.10
2023-01-22T00:20:03.118Z,18.70
2023-01-22T00:20:13.871Z,19.40
2023-01-22T00:20:24.919Z,19.10
2023-01-22T00:20:35.884Z,18.60
2023-01-22T00:20:46.670Z,19.50
2023-01-22T00:20:57.736Z,19.80
2023-01-22T00:21:08.730Z,19.80
2023-01-22T00:21:19.503Z,20.20
2023-01-22T00:21:30.558Z,20.30
2023-01-22T00:21:41.553Z,19.60
2023-01-22T00:21:52.338Z,19.20
2023-01-22T00:22:03.363Z,20.10
2023-01-22T00:22:14.339Z,19.30
2023-01-22T00:22:25.139Z,18.70
2023-01-22T00:22:36.188Z,18.20
2023-01-22T00:22:47.228Z,18.80
2023-01-22T00:22:57.970Z,19.60
2023-01-22T00:23:09.001Z,20.20
2023-01-22T00:23:20.039Z,20.70
2023-01-22T00:23:30.802Z,19.90
2023-01-22T00:23:41.855Z,19.20
2023-01-22T00:23:52.835Z,19.60
2023-01-22T00:24:03.593Z,19.40
2023-01-22T00:24:14.657Z,19.60
2023-01-22T00:24:25.645Z,19.00
2023-01-22T00:24:36.400Z,19.10
2023-01-22T00:24:47.526Z,19.00
2023-01-22T00:24:58.476Z,19.30
2023-01-22T00:25:09.233Z,19.80
2023-01-22T00:25:20.289Z,19.70
2023-01-22T00:25:31.282Z,19.60
2023-01-22T00:25:42.031Z,19.40
2023-01-22T00:25:53.090Z,18.70
2023-01-22T00:26:04.065Z,18.90
2023-01-22T00:26:14.848Z,18.50
2023-01-22T00:26:25.892Z,18.50
2023-01-22T00:26:36.864Z,18.90
2023-01-22T00:26:47.687Z,19.50
2023-01-22T00:26:58.720Z,21.70
2023-01-22T00:27:09.700Z,22.90
2023-01-22T00:27:20.467Z,24.00
2023-01-22T00:27:31.526Z,22.60
2023-01-22T00:27:42.492Z,22.80
2023-01-22T00:27:53.317Z,21.80
2023-01-22T00:28:04.361Z,21.80
2023-01-22T00:28:15.325Z,21.80
2023-01-22T00:28:26.084Z,22.30
2023-01-22T00:28:37.153Z,22.20
2023-01-22T00:28:48.130Z,22.40
2023-01-22T00:28:58.943Z,21.30
2023-01-22T00:29:09.960Z,20.60
2023-01-22T00:29:20.934Z,21.50
2023-01-22T00:29:31.706Z,21.60
2023-01-22T00:29:42.767Z,20.60
2023-01-22T00:29:53.740Z,19.80
2023-01-22T00:30:04.533Z,20.10
2023-01-22T00:30:15.978Z,20.90
2023-01-22T00:30:26.525Z,20.70
2023-01-22T00:30:37.304Z,19.90
2023-01-22T00:30:48.341Z,20.20
2023-01-22T00:30:59.426Z,19.90
2023-01-22T00:31:10.370Z,20.50
2023-01-22T00:31:21.024Z,20.30
2023-01-22T00:31:31.546Z,21.00
2023-01-22T00:31:42.392Z,20.60
2023-01-22T00:31:53.000Z,20.30
2023-01-22T00:32:03.569Z,20.90
2023-01-22T00:32:14.471Z,19.40
2023-01-22T00:32:24.994Z,19.20
2023-01-22T00:32:35.981Z,20.60
2023-01-22T00:32:46.808Z,20.80
2023-01-22T00:32:57.816Z,20.20
2023-01-22T00:33:08.822Z,18.50
2023-01-22T00:33:19.695Z,18.20
2023-01-22T00:33:30.144Z,17.70
2023-01-22T00:33:41.130Z,18.00
2023-01-22T00:33:51.909Z,19.40
2023-01-22T00:34:02.950Z,19.30
2023-01-22T00:34:13.937Z,18.70
2023-01-22T00:34:24.704Z,19.20
2023-01-22T00:34:35.784Z,19.50
2023-01-22T00:34:46.727Z,19.60
2023-01-22T00:34:57.487Z,19.90
2023-01-22T00:35:08.537Z,19.80
2023-01-22T00:35:19.584Z,18.90
2023-01-22T00:35:30.334Z,18.70
2023-01-22T00:35:41.374Z,18.70
2023-01-22T00:35:52.364Z,19.00
2023-01-22T00:36:03.133Z,19.40
2023-01-22T00:36:14.231Z,19.30
2023-01-22T00:36:25.174Z,19.20
2023-01-22T00:36:35.955Z,20.10
2023-01-22T00:36:46.999Z,19.80
2023-01-22T00:36:58.040Z,19.70
2023-01-22T00:37:08.777Z,19.40
2023-01-22T00:37:19.814Z,20.40
2023-01-22T00:37:30.801Z,19.90
2023-01-22T00:37:41.564Z,19.90
2023-01-22T00:37:52.616Z,19.50
2023-01-22T00:38:03.571Z,19.40
2023-01-22T00:38:14.389Z,18.90
2023-01-22T00:38:25.423Z,18.60
2023-01-22T00:38:36.417Z,18.80
2023-01-22T00:38:47.152Z,19.60
2023-01-22T00:38:58.200Z,20.40
2023-01-22T00:39:09.249Z,21.20
2023-01-22T00:39:19.959Z,21.10
2023-01-22T00:39:31.010Z,19.70
2023-01-22T00:39:41.990Z,18.80
2023-01-22T00:39:52.761Z,20.60
2023-01-22T00:40:03.844Z,20.60
2023-01-22T00:40:14.788Z,20.00
2023-01-22T00:40:25.556Z,19.20
2023-01-22T00:40:36.601Z,19.80
2023-01-22T00:40:47.573Z,19.40
2023-01-22T00:40:58.336Z,21.20
2023-01-22T00:41:09.400Z,20.90
2023-01-22T00:41:20.388Z,20.30
2023-01-22T00:41:31.133Z,17.70
2023-01-22T00:41:42.185Z,17.80
2023-01-22T00:41:53.179Z,18.10
2023-01-22T00:42:03.955Z,19.60
2023-01-22T00:42:15.023Z,19.70
2023-01-22T00:42:25.978Z,19.40
2023-01-22T00:42:36.760Z,18.40
2023-01-22T00:42:47.825Z,19.30
2023-01-22T00:42:58.792Z,19.50
2023-01-22T00:43:09.564Z,20.30
2023-01-22T00:43:20.655Z,20.10
2023-01-22T00:43:31.595Z,19.60
2023-01-22T00:43:42.374Z,20.10
2023-01-22T00:43:53.415Z,18.70
2023-01-22T00:44:04.387Z,18.90
2023-01-22T00:44:15.173Z,19.10
2023-01-22T00:44:26.266Z,19.60
2023-01-22T00:44:37.205Z,20.40
2023-01-22T00:44:47.989Z,20.10
2023-01-22T00:44:59.022Z,20.50
2023-01-22T00:45:10.037Z,20.50
2023-01-22T00:45:20.788Z,20.60
2023-01-22T00:45:31.822Z,20.80
2023-01-22T00:45:42.864Z,20.60
2023-01-22T00:45:53.638Z,20.70
2023-01-22T00:46:04.711Z,20.30
2023-01-22T00:46:15.771Z,21.60
2023-01-22T00:46:26.577Z,21.40
2023-01-22T00:46:37.148Z,21.10
2023-01-22T00:46:48.141Z,19.70
2023-01-22T00:46:58.895Z,20.20
2023-01-22T00:47:10.047Z,19.90
2023-01-22T00:47:20.981Z,20.90
2023-01-22T00:47:31.756Z,20.50
2023-01-22T00:47:42.806Z,20.90
2023-01-22T00:47:53.782Z,21.70
2023-01-22T00:48:04.596Z,20.30
2023-01-22T00:48:15.606Z,20.70
2023-01-22T00:48:26.586Z,21.00
2023-01-22T00:48:37.354Z,22.10
2023-01-22T00:48:48.405Z,21.20
2023-01-22T00:48:59.412Z,20.50
2023-01-22T00:49:10.196Z,20.10
2023-01-22T00:49:20.703Z,21.20
2023-01-22T00:49:31.696Z,20.90
2023-01-22T00:49:42.440Z,20.20
2023-01-22T00:49:53.492Z,21.40
2023-01-22T00:50:04.477Z,21.90
2023-01-22T00:50:15.528Z,22.80
2023-01-22T00:50:26.170Z,22.10
2023-01-22T00:50:37.127Z,21.60
2023-01-22T00:50:47.910Z,20.50
2023-01-22T00:50:58.942Z,20.40
2023-01-22T00:51:09.996Z,21.20
2023-01-22T00:51:20.824Z,20.70
2023-01-22T00:51:31.843Z,20.90
2023-01-22T00:51:42.815Z,21.50
2023-01-22T00:51:53.592Z,21.20
2023-01-22T00:52:04.660Z,21.70
2023-01-22T00:52:15.658Z,22.00
2023-01-22T00:52:26.411Z,23.50
2023-01-22T00:52:36.953Z,22.20
2023-01-22T00:52:47.934Z,21.70
2023-01-22T00:52:58.700Z,21.70
2023-01-22T00:53:09.755Z,22.90
2023-01-22T00:53:20.735Z,22.10
2023-01-22T00:53:31.506Z,21.20
2023-01-22T00:53:42.560Z,21.00
2023-01-22T00:53:53.574Z,21.80
2023-01-22T00:54:04.320Z,21.60
2023-01-22T00:54:15.367Z,22.20
2023-01-22T00:54:26.337Z,21.70
2023-01-22T00:54:37.110Z,22.40
2023-01-22T00:54:48.141Z,21.50
2023-01-22T00:54:59.124Z,20.50
2023-01-22T00:55:09.886Z,21.40
2023-01-22T00:55:20.981Z,21.90
2023-01-22T00:55:31.931Z,22.60
2023-01-22T00:55:42.699Z,21.90
2023-01-22T00:55:53.799Z,21.70
2023-01-22T00:56:04.727Z,21.80
2023-01-22T00:56:15.503Z,22.50
2023-01-22T00:56:26.555Z,22.50
2023-01-22T00:56:37.523Z,23.70
2023-01-22T00:56:48.339Z,22.90
2023-01-22T00:56:59.377Z,22.70
2023-01-22T00:57:10.317Z,22.50
2023-01-22T00:57:21.104Z,22.40
2023-01-22T00:57:32.177Z,23.10
2023-01-22T00:57:43.146Z,23.20
2023-01-22T00:57:53.915Z,23.80
2023-01-22T00:58:04.972Z,23.00
2023-01-22T00:58:15.944Z,22.90
2023-01-22T00:58:26.707Z,22.90
2023-01-22T00:58:37.755Z,23.30
2023-01-22T00:58:48.730Z,22.80
2023-01-22T00:58:59.505Z,22.80
2023-01-22T00:59:10.596Z,22.70
2023-01-22T00:59:21.553Z,23.80
2023-01-22T00:59:32.402Z,25.20
2023-01-22T00:59:43.456Z,24.30
2023-01-22T00:59:54.431Z,22.60
2023-01-22T01:00:05.208Z,20.80
2023-01-22T01:00:16.483Z,23.20
2023-01-22T01:00:27.040Z,23.40
2023-01-22T01:00:37.843Z,24.70
2023-01-22T01:00:48.900Z,23.10
2023-01-22T01:00:59.914Z,23.20
2023-01-22T01:01:10.708Z,22.20
2023-01-22T01:01:21.228Z,24.50
2023-01-22T01:01:32.176Z,25.40
2023-01-22T01:01:42.965Z,25.20
2023-01-22T01:01:54.022Z,24.30
2023-01-22T01:02:05.087Z,23.80
2023-01-22T01:02:15.872Z,25.10
2023-01-22T01:02:26.888Z,24.60
2023-01-22T01:02:37.877Z,24.00
2023-01-22T01:02:48.659Z,25.00
2023-01-22T01:02:59.706Z,24.90
2023-01-22T01:03:10.758Z,24.30
2023-01-22T01:03:21.486Z,24.20
2023-01-22T01:03:32.528Z,25.00
2023-01-22T01:03:43.489Z,25.00
2023-01-22T01:03:54.269Z,24.50
2023-01-22T01:04:05.318Z,24.10
2023-01-22T01:04:16.290Z,25.80
2023-01-22T01:04:27.139Z,24.80
2023-01-22T01:04:37.673Z,25.10
2023-01-22T01:04:48.641Z,24.40
2023-01-22T01:04:59.400Z,23.60
2023-01-22T01:05:10.438Z,24.80
2023-01-22T01:05:21.429Z,23.70
2023-01-22T01:05:32.270Z,24.60
2023-01-22T01:05:42.732Z,24.50
2023-01-22T01:05:53.707Z,25.30
2023-01-22T01:06:04.477Z,25.50
2023-01-22T01:06:15.610Z,25.60
2023-01-22T01:06:26.541Z,25.20
2023-01-22T01:06:37.304Z,25.00
2023-01-22T01:06:48.405Z,23.50
2023-01-22T01:06:59.357Z,24.60
2023-01-22T01:07:10.111Z,23.30
2023-01-22T01:07:21.169Z,23.80
2023-01-22T01:07:32.141Z,23.40
2023-01-22T01:07:42.919Z,26.00
2023-01-22T01:07:54.003Z,25.40
2023-01-22T01:08:04.983Z,24.60
2023-01-22T01:08:15.751Z,23.90
2023-01-22T01:08:26.819Z,23.80
2023-01-22T01:08:37.813Z,22.70
2023-01-22T01:08:48.573Z,23.30
2023-01-22T01:08:59.619Z,23.80
2023-01-22T01:09:10.588Z,24.10
2023-01-22T01:09:21.364Z,23.90
2023-01-22T01:09:32.408Z,22.60
2023-01-22T01:09:43.371Z,22.50
2023-01-22T01:09:54.170Z,22.70
2023-01-22T01:10:05.196Z,22.50
2023-01-22T01:10:16.626Z,21.80
2023-01-22T01:10:26.930Z,21.40
2023-01-22T01:10:37.953Z,22.60
2023-01-22T01:10:48.954Z,22.70
2023-01-22T01:10:59.729Z,23.50
2023-01-22T01:11:10.345Z,25.60
2023-01-22T01:11:21.308Z,24.80
2023-01-22T01:11:32.084Z,23.10
2023-01-22T01:11:43.138Z,22.10
2023-01-22T01:11:54.104Z,22.90
2023-01-22T01:12:04.871Z,23.70
2023-01-22T01:12:15.984Z,22.00
2023-01-22T01:12:26.953Z,22.50
2023-01-22T01:12:37.866Z,22.00
2023-01-22T01:12:48.346Z,22.80
2023-01-22T01:12:59.330Z,23.50
2023-01-22T01:13:10.101Z,24.00
2023-01-22T01:13:21.321Z,24.10
2023-01-22T01:13:32.262Z,22.20
2023-01-22T01:13:43.231Z,21.80
2023-01-22T01:13:53.765Z,22.00
2023-01-22T01:14:04.710Z,23.00
2023-01-22T01:14:15.496Z,23.50
2023-01-22T01:14:26.560Z,22.90
2023-01-22T01:14:37.510Z,23.50
2023-01-22T01:14:48.281Z,23.30
2023-01-22T01:14:59.355Z,23.30
2023-01-22T01:15:10.308Z,23.10
2023-01-22T01:15:21.079Z,22.80
2023-01-22T01:15:32.140Z,22.50
2023-01-22T01:15:43.181Z,22.60
2023-01-22T01:15:53.981Z,23.00
2023-01-22T01:16:05.116Z,23.60
2023-01-22T01:16:16.139Z,23.80
2023-01-22T01:16:27.047Z,23.50
2023-01-22T01:16:37.571Z,23.30
2023-01-22T01:16:48.529Z,22.70
2023-01-22T01:16:59.346Z,21.60
2023-01-22T01:17:10.366Z,22.50
2023-01-22T01:17:21.343Z,21.90
2023-01-22T01:17:32.111Z,22.50
2023-01-22T01:17:43.181Z,21.70
2023-01-22T01:17:54.148Z,21.10
2023-01-22T01:18:04.901Z,21.80
2023-01-22T01:18:15.968Z,22.10
2023-01-22T01:18:26.937Z,23.70
2023-01-22T01:18:37.703Z,24.00
2023-01-22T01:18:48.760Z,22.40
2023-01-22T01:18:59.742Z,22.20
2023-01-22T01:19:10.517Z,23.20
2023-01-22T01:19:21.563Z,24.90
2023-01-22T01:19:32.620Z,24.50
2023-01-22T01:19:43.319Z,24.20
2023-01-22T01:19:54.376Z,22.40
2023-01-22T01:20:05.380Z,23.50
2023-01-22T01:20:16.613Z,22.20
2023-01-22T01:20:26.722Z,23.00
2023-01-22T01:20:37.689Z,23.00
2023-01-22T01:20:48.464Z,24.60
2023-01-22T01:20:59.595Z,23.30
2023-01-22T01:21:10.541Z,21.80
2023-01-22T01:21:21.323Z,22.80
2023-01-22T01:21:32.352Z,24.80
2023-01-22T01:21:43.343Z,24.70
2023-01-22T01:21:54.107Z,24.30
2023-01-22T01:22:05.247Z,21.60
2023-01-22T01:22:16.184Z,21.00
2023-01-22T01:22:26.957Z,21.10
2023-01-22T01:22:38.009Z,22.50
2023-01-22T01:22:49.056Z,22.90
2023-01-22T01:22:59.800Z,24.00
2023-01-22T01:23:10.851Z,22.30
2023-01-22T01:23:21.811Z,23.30
2023-01-22T01:23:32.593Z,23.70
2023-01-22T01:23:43.789Z,23.80
2023-01-22T01:23:54.712Z,24.00
2023-01-22T01:24:05.478Z,22.40
2023-01-22T01:24:16.533Z,21.00
2023-01-22T01:24:27.491Z,21.60
2023-01-22T01:24:38.263Z,22.90
2023-01-22T01:24:49.297Z,22.00
2023-01-22T01:25:00.326Z,20.20
2023-01-22T01:25:11.085Z,21.10
2023-01-22T01:25:22.118Z,21.40
2023-01-22T01:25:33.093Z,21.60
2023-01-22T01:25:43.873Z,21.50
2023-01-22T01:25:54.911Z,22.50
2023-01-22T01:26:05.896Z,23.60
2023-01-22T01:26:16.663Z,23.20
2023-01-22T01:26:27.711Z,21.90
2023-01-22T01:26:38.671Z,22.90
2023-01-22T01:26:49.488Z,22.30
2023-01-22T01:27:00.515Z,22.80
2023-01-22T01:27:11.497Z,22.10
2023-01-22T01:27:22.346Z,22.70
2023-01-22T01:27:32.873Z,22.90
2023-01-22T01:27:43.922Z,23.20
2023-01-22T01:27:54.623Z,22.20
2023-01-22T01:28:05.690Z,21.20
2023-01-22T01:28:16.659Z,20.60
2023-01-22T01:28:27.421Z,21.00
2023-01-22T01:28:38.468Z,21.40
2023-01-22T01:28:49.430Z,21.30
2023-01-22T01:29:00.309Z,21.40
2023-01-22T01:29:10.761Z,21.10
2023-01-22T01:29:21.771Z,22.50
2023-01-22T01:29:32.584Z,22.70
2023-01-22T01:29:43.612Z,22.40
2023-01-22T01:29:54.610Z,21.60
2023-01-22T01:30:05.372Z,21.80
2023-01-22T01:30:16.695Z,22.90
2023-01-22T01:30:27.231Z,23.30
2023-01-22T01:30:38.092Z,24.00
2023-01-22T01:30:48.609Z,23.60
2023-01-22T01:30:59.674Z,22.20
2023-01-22T01:31:10.504Z,21.30
2023-01-22T01:31:21.205Z,21.80
2023-01-22T01:31:31.730Z,22.80
2023-01-22T01:31:42.497Z,23.10
2023-01-22T01:31:53.452Z,23.30
2023-01-22T01:32:03.956Z,22.10
2023-01-22T01:32:14.679Z,21.20
2023-01-22T01:32:25.730Z,21.10
2023-01-22T01:32:36.702Z,21.70
2023-01-22T01:32:47.474Z,21.30
2023-01-22T01:32:58.619Z,20.80
2023-01-22T01:33:09.541Z,21.60
2023-01-22T01:33:20.315Z,21.90
2023-01-22T01:33:31.389Z,21.10
2023-01-22T01:33:42.383Z,20.90
2023-01-22T01:33:53.158Z,21.00
2023-01-22T01:34:04.215Z,21.20
2023-01-22T01:34:15.290Z,21.70
2023-01-22T01:34:26.053Z,21.70
2023-01-22T01:34:37.086Z,21.80
2023-01-22T01:34:48.038Z,22.20
2023-01-22T01:34:58.819Z,22.70
2023-01-22T01:35:09.888Z,23.00
2023-01-22T01:35:22.751Z,21.70
2023-01-22T01:35:31.970Z,20.30
2023-01-22T01:35:43.029Z,20.30
2023-01-22T01:35:53.984Z,20.50
2023-01-22T01:36:04.749Z,21.00
2023-01-22T01:36:15.810Z,21.60
2023-01-22T01:36:47.143Z,21.70
2023-01-22T01:36:49.917Z,22.10
2023-01-22T01:36:50.012Z,20.60
2023-01-22T01:36:59.325Z,21.10
2023-01-22T01:37:10.094Z,22.70
2023-01-22T01:37:21.166Z,22.30
2023-01-22T01:37:32.155Z,22.00
2023-01-22T01:37:42.913Z,21.30
2023-01-22T01:37:53.963Z,22.10
2023-01-22T01:38:04.943Z,21.60
2023-01-22T01:38:15.717Z,22.10
2023-01-22T01:38:26.767Z,21.40
2023-01-22T01:38:37.762Z,21.80
2023-01-22T01:38:48.549Z,21.80
2023-01-22T01:38:59.575Z,23.50
2023-01-22T01:39:10.615Z,23.10
2023-01-22T01:39:21.356Z,23.10
2023-01-22T01:39:32.395Z,22.70
2023-01-22T01:39:43.383Z,21.10
2023-01-22T01:39:54.158Z,20.90
2023-01-22T01:40:05.217Z,20.50
2023-01-22T01:40:16.637Z,20.90
2023-01-22T01:40:26.935Z,21.10
2023-01-22T01:40:37.988Z,22.40
2023-01-22T01:40:48.984Z,22.50
2023-01-22T01:40:59.768Z,23.00
2023-01-22T01:41:10.802Z,23.30
2023-01-22T01:41:21.789Z,23.60
2023-01-22T01:41:32.557Z,22.40
2023-01-22T01:41:43.625Z,22.40
2023-01-22T01:41:54.590Z,21.40
2023-01-22T01:42:05.356Z,21.70
2023-01-22T01:42:16.401Z,21.90
2023-01-22T01:42:27.438Z,23.00
2023-01-22T01:42:38.209Z,21.90
2023-01-22T01:42:49.362Z,21.50
2023-01-22T01:43:00.307Z,20.80
2023-01-22T01:43:11.107Z,21.30
2023-01-22T01:43:22.152Z,20.80
2023-01-22T01:43:33.131Z,21.10
2023-01-22T01:43:43.893Z,20.80
2023-01-22T01:43:54.956Z,20.80
2023-01-22T01:44:05.985Z,22.10
2023-01-22T01:44:16.730Z,21.00
2023-01-22T01:44:27.771Z,20.20
2023-01-22T01:44:38.766Z,21.00
2023-01-22T01:44:49.523Z,22.20
2023-01-22T01:45:00.588Z,23.80
2023-01-22T01:45:11.547Z,22.50
2023-01-22T01:45:22.359Z,21.50
2023-01-22T01:45:33.418Z,21.20
2023-01-22T01:45:44.388Z,20.90
2023-01-22T01:45:55.165Z,22.30
2023-01-22T01:46:06.246Z,22.30
2023-01-22T01:46:17.270Z,20.70
2023-01-22T01:46:28.024Z,21.20
2023-01-22T01:46:39.159Z,21.00
2023-01-22T01:46:49.674Z,21.10
2023-01-22T01:47:00.442Z,21.10
2023-01-22T01:47:11.481Z,20.20
2023-01-22T01:47:22.467Z,20.30
2023-01-22T01:47:33.222Z,20.30
2023-01-22T01:47:44.323Z,21.20
2023-01-22T01:47:55.262Z,21.70
2023-01-22T01:48:06.033Z,22.30
2023-01-22T01:48:17.093Z,22.40
2023-01-22T01:48:28.090Z,21.70
2023-01-22T01:48:38.839Z,21.80
2023-01-22T01:48:49.889Z,21.50
2023-01-22T01:49:00.862Z,22.00
2023-01-22T01:49:11.695Z,22.10
2023-01-22T01:49:22.182Z,22.10
2023-01-22T01:49:33.127Z,22.80
2023-01-22T01:49:43.911Z,23.10
2023-01-22T01:49:54.959Z,22.40
2023-01-22T01:50:05.911Z,22.40
2023-01-22T01:50:17.046Z,22.70
2023-01-22T01:50:27.630Z,22.90
2023-01-22T01:50:38.584Z,21.90
2023-01-22T01:50:49.389Z,21.60
2023-01-22T01:51:00.447Z,21.00
2023-01-22T01:51:11.441Z,21.80
2023-01-22T01:51:22.258Z,23.50
2023-01-22T01:51:33.277Z,24.60
2023-01-22T01:51:44.247Z,23.80
2023-01-22T01:51:55.017Z,22.80
2023-01-22T01:52:06.062Z,22.50
2023-01-22T01:52:17.042Z,23.10
2023-01-22T01:52:27.856Z,22.60
2023-01-22T01:52:38.871Z,22.30
2023-01-22T01:52:49.829Z,22.90
2023-01-22T01:53:00.589Z,22.40
2023-01-22T01:53:11.642Z,22.00
2023-01-22T01:53:22.610Z,22.50
2023-01-22T01:53:33.381Z,23.30
2023-01-22T01:53:44.447Z,22.50
2023-01-22T01:53:55.431Z,22.70
2023-01-22T01:54:06.209Z,22.30
2023-01-22T01:54:17.252Z,21.10
2023-01-22T01:54:28.266Z,20.50
2023-01-22T01:54:38.993Z,21.10
2023-01-22T01:54:50.083Z,20.70
2023-01-22T01:55:01.047Z,20.40
2023-01-22T01:55:11.854Z,20.40
2023-01-22T01:55:22.897Z,22.40
2023-01-22T01:55:33.870Z,22.60
2023-01-22T01:55:44.651Z,22.70
2023-01-22T01:55:55.680Z,21.50
2023-01-22T01:56:06.652Z,21.80
2023-01-22T01:56:17.480Z,21.80
2023-01-22T01:56:28.471Z,22.20
2023-01-22T01:56:39.482Z,23.20
2023-01-22T01:56:50.234Z,23.40
2023-01-22T01:57:01.298Z,23.50
2023-01-22T01:57:12.262Z,23.20
2023-01-22T01:57:23.054Z,22.30
2023-01-22T01:57:34.074Z,22.80
2023-01-22T01:57:45.051Z,21.70
2023-01-22T01:57:55.925Z,21.60
2023-01-22T01:58:06.366Z,21.10
2023-01-22T01:58:17.457Z,21.70
2023-01-22T01:58:28.187Z,21.00
2023-01-22T01:58:39.268Z,20.90
2023-01-22T01:58:50.217Z,21.10
2023-01-22T01:59:01.008Z,21.10
2023-01-22T01:59:12.041Z,21.40
2023-01-22T01:59:23.011Z,22.10
2023-01-22T01:59:33.834Z,22.60
2023-01-22T01:59:44.834Z,22.30
2023-01-22T01:59:55.793Z,21.40
2023-01-22T02:00:06.573Z,21.00
2023-01-22T02:00:17.917Z,21.10
2023-01-22T02:00:28.499Z,21.70
2023-01-22T02:00:39.252Z,22.00
2023-01-22T02:00:50.359Z,22.50
2023-01-22T02:01:01.312Z,21.10
2023-01-22T02:01:12.091Z,21.30
2023-01-22T02:01:22.614Z,21.80
2023-01-22T02:01:33.580Z,21.90
2023-01-22T02:01:44.372Z,21.40
2023-01-22T02:01:55.514Z,21.70
2023-01-22T02:02:06.505Z,22.30
2023-01-22T02:02:17.322Z,22.20
2023-01-22T02:02:27.831Z,23.40
2023-01-22T02:02:38.772Z,22.10
2023-01-22T02:02:49.559Z,22.70
2023-01-22T02:03:00.617Z,21.60
2023-01-22T02:03:11.615Z,22.10
2023-01-22T02:03:22.381Z,21.80
2023-01-22T02:03:33.422Z,22.00
2023-01-22T02:03:44.425Z,21.80
2023-01-22T02:03:55.192Z,21.60
2023-01-22T02:04:06.302Z,22.40
2023-01-22T02:04:17.258Z,21.80
2023-01-22T02:04:28.040Z,20.60
2023-01-22T02:04:39.100Z,20.20
2023-01-22T02:04:50.062Z,20.90
2023-01-22T02:05:00.972Z,21.20
2023-01-22T02:05:11.445Z,21.10
2023-01-22T02:05:22.389Z,21.60
2023-01-22T02:05:33.161Z,21.60
2023-01-22T02:05:44.269Z,21.20
2023-01-22T02:05:55.202Z,21.40
2023-01-22T02:06:05.986Z,21.80
2023-01-22T02:06:17.017Z,21.90
2023-01-22T02:06:27.996Z,22.60
2023-01-22T02:06:38.846Z,23.00
2023-01-22T02:06:49.843Z,21.80
2023-01-22T02:07:00.815Z,21.00
2023-01-22T02:07:11.583Z,20.60
2023-01-22T02:07:22.635Z,21.50
2023-01-22T02:07:33.610Z,22.20
2023-01-22T02:07:44.396Z,22.00
2023-01-22T02:07:55.442Z,21.40
2023-01-22T02:08:06.489Z,21.00
2023-01-22T02:08:17.236Z,21.40
2023-01-22T02:08:28.287Z,22.00
2023-01-22T02:08:39.261Z,21.50
2023-01-22T02:08:50.064Z,22.70
2023-01-22T02:09:01.096Z,23.40
2023-01-22T02:09:12.088Z,22.40
2023-01-22T02:09:22.844Z,22.30
2023-01-22T02:09:33.895Z,21.70
2023-01-22T02:09:44.856Z,20.50
2023-01-22T02:09:55.628Z,19.80
2023-01-22T02:10:06.702Z,20.70
2023-01-22T02:10:18.078Z,22.80
2023-01-22T02:10:28.357Z,23.70
2023-01-22T02:10:39.398Z,23.60
2023-01-22T02:10:50.404Z,21.70
2023-01-22T02:11:01.161Z,22.30
2023-01-22T02:11:12.220Z,23.00
2023-01-22T02:11:23.201Z,22.20
2023-01-22T02:11:33.953Z,22.00
2023-01-22T02:11:45.018Z,22.30
2023-01-22T02:11:55.994Z,23.60
2023-01-22T02:12:06.762Z,23.50
2023-01-22T02:12:17.805Z,22.90
2023-01-22T02:12:28.777Z,21.60
2023-01-22T02:12:39.550Z,20.80
2023-01-22T02:12:50.643Z,21.30
2023-01-22T02:13:01.705Z,22.50
2023-01-22T02:13:12.414Z,22.70
2023-01-22T02:13:23.462Z,23.00
2023-01-22T02:13:34.443Z,22.90
2023-01-22T02:13:45.224Z,21.80
2023-01-22T02:13:56.305Z,21.70
2023-01-22T02:14:07.283Z,22.30
2023-01-22T02:14:18.060Z,22.80
2023-01-22T02:14:29.135Z,22.00
2023-01-22T02:14:40.083Z,22.90
2023-01-22T02:14:50.859Z,23.10
2023-01-22T02:15:01.912Z,24.10
2023-01-22T02:15:12.884Z,23.20
2023-01-22T02:15:23.728Z,23.50
2023-01-22T02:15:34.294Z,22.30
2023-01-22T02:15:45.220Z,22.50
2023-01-22T02:15:56.080Z,22.40
2023-01-22T02:16:07.125Z,22.90
2023-01-22T02:16:18.141Z,23.20
2023-01-22T02:16:28.968Z,22.00
2023-01-22T02:16:39.491Z,22.40
2023-01-22T02:16:50.441Z,22.10
2023-01-22T02:17:01.388Z,22.50
2023-01-22T02:17:11.845Z,22.30
2023-01-22T02:17:22.794Z,22.10
2023-01-22T02:17:33.560Z,21.30
2023-01-22T02:17:44.606Z,21.60
2023-01-22T02:17:55.587Z,21.40
2023-01-22T02:18:06.336Z,22.00
2023-01-22T02:18:17.384Z,22.50
2023-01-22T02:18:28.380Z,22.10
2023-01-22T02:18:39.123Z,22.80
2023-01-22T02:18:50.171Z,22.80
2023-01-22T02:19:01.171Z,22.60
2023-01-22T02:19:11.938Z,21.70
2023-01-22T02:19:22.994Z,21.20
2023-01-22T02:19:33.982Z,20.80
2023-01-22T02:19:44.744Z,20.00
2023-01-22T02:19:55.859Z,21.10
2023-01-22T02:20:06.770Z,21.60
2023-01-22T02:20:17.804Z,21.00
2023-01-22T02:20:28.443Z,21.10